Terminal Aerodrome Forecast
Issued by NWS

Home | Current Version | Previous Version | Text Only | Print | Product List | Glossary On
Versions: 1 2 3 4 5 6 7 8 9 10 11 12 13 14 15 16 17 18 19 20 21 22 23 24 25 26 27 28
136
FTUS41 KOKX 220147 AAA
TAFGON
TAF AMD
KGON 220147Z 2202/2224 23006KT P6SM SCT250
     FM220600 21004KT 6SM BR SCT010 SCT250
      TEMPO 2208/2212 4SM BR BKN010
     FM221300 21008KT P6SM FEW015 BKN030
     FM221500 21010KT P6SM FEW040 BKN250=

USA.gov is the U.S. government's official web portal to all federal, state and local government web resources and services.